Time;durP1;ratioP1;P1;durP2;ratioP2;P2;SDS_P1;SDS_P2;PMS_P1;PMS_P2;Temp;Humidity;BMP_temperature;BMP_pressure;BME280_temperature;BME280_humidity;BME280_pressure;Samples;Min_cycle;Max_cycle;Signal;HPM_P1;HPM_P2
2021/04/23 00:01:26;;;;;;;0.80;0.70;;;3.90;99.90;;;4.38;100.00;-20801.19;5074386;28;20240;-67
2021/04/23 00:03:57;;;;;;;0.80;0.75;;;3.90;99.90;;;4.24;100.00;-20797.59;5074737;28;20185;-68
2021/04/23 00:06:28;;;;;;;0.70;0.60;;;3.80;99.90;;;4.22;100.00;-20797.03;5073902;28;20714;-67
2021/04/23 00:08:59;;;;;;;0.80;0.75;;;3.80;99.90;;;4.15;100.00;-20794.94;5087477;28;20241;-67
2021/04/23 00:11:37;;;;;;;0.80;0.70;;;3.70;99.90;;;4.09;100.00;-20793.41;5075300;28;20243;-67
2021/04/23 00:14:08;;;;;;;0.70;0.70;;;3.70;99.90;;;4.13;100.00;-20794.50;5074156;28;20184;-66
2021/04/23 00:16:36;;;;;;;0.80;0.70;;;3.70;99.90;;;4.21;100.00;-20796.59;5073764;28;20614;-67
2021/04/23 00:19:05;;;;;;;0.80;0.70;;;3.70;99.90;;;4.18;100.00;-20795.78;5074019;28;20220;-67
2021/04/23 00:21:33;;;;;;;0.70;0.60;;;3.70;99.90;;;4.13;100.00;-20794.50;5091090;28;20208;-67
2021/04/23 00:24:00;;;;;;;0.80;0.70;;;3.70;99.90;;;4.04;100.00;-20792.16;5109845;28;20175;-68
2021/04/23 00:26:28;;;;;;;0.80;0.70;;;3.60;99.90;;;3.88;100.00;-20787.69;5094819;28;20286;-67
2021/04/23 00:28:55;;;;;;;0.80;0.70;;;3.50;99.90;;;3.80;100.00;-20785.47;5094190;28;20180;-67
2021/04/23 00:31:23;;;;;;;0.70;0.65;;;3.50;99.90;;;3.74;100.00;-20783.91;5074226;28;20615;-66
2021/04/23 00:33:50;;;;;;;0.77;0.70;;;3.40;99.90;;;3.71;100.00;-20783.09;5073720;28;20185;-67
2021/04/23 00:36:17;;;;;;;0.80;0.70;;;3.40;99.90;;;3.72;100.00;-20783.22;5073865;28;20652;-66
2021/04/23 00:38:45;;;;;;;0.80;0.70;;;3.30;99.90;;;3.60;100.00;-20780.00;5078411;28;20191;-66
2021/04/23 00:41:21;;;;;;;0.70;0.60;;;3.20;99.90;;;3.53;100.00;-20778.19;5092697;28;20192;-66
2021/04/23 00:43:58;;;;;;;0.70;0.60;;;3.20;99.90;;;3.51;100.00;-20777.50;5093712;28;20280;-67
2021/04/23 00:46:29;;;;;;;0.70;0.60;;;3.00;99.90;;;3.46;100.00;-20776.09;5076090;28;20200;-66
2021/04/23 00:48:57;;;;;;;0.80;0.70;;;3.10;99.90;;;3.45;100.00;-20775.84;5074411;28;20193;-66
2021/04/23 00:51:30;;;;;;;0.80;0.70;;;3.10;99.90;;;3.42;100.00;-20775.00;5079100;28;20415;-66
2021/04/23 00:53:59;;;;;;;0.80;0.70;;;3.00;99.90;;;3.46;100.00;-20776.09;5089104;28;20317;-67
2021/04/23 00:56:33;;;;;;;0.70;0.60;;;2.90;99.90;;;3.43;100.00;-20775.28;5077021;28;20172;-67
2021/04/23 00:59:00;;;;;;;0.80;0.70;;;2.90;99.90;;;3.47;100.00;-20776.41;5108322;28;20188;-65
2021/04/23 01:01:32;;;;;;;0.80;0.70;;;2.90;99.90;;;3.43;100.00;-20775.41;5074153;28;20676;-66
2021/04/23 01:04:04;;;;;;;0.70;0.60;;;2.90;99.90;;;3.42;100.00;-20775.00;5073475;28;20173;-67
2021/04/23 01:06:34;;;;;;;0.80;0.75;;;2.90;99.90;;;3.42;100.00;-20775.13;5073366;28;20215;-68
2021/04/23 01:09:08;;;;;;;0.80;0.70;;;2.90;99.90;;;3.44;100.00;-20775.56;5073306;28;20544;-65
2021/04/23 01:11:35;;;;;;;0.80;0.70;;;2.90;99.90;;;3.29;100.00;-20771.66;5091316;28;20185;-65
2021/04/23 01:14:03;;;;;;;0.80;0.70;;;2.90;99.90;;;3.28;100.00;-20771.38;5092086;28;20246;-67
2021/04/23 01:16:31;;;;;;;0.80;0.70;;;2.80;99.90;;;3.20;100.00;-20769.13;5083368;28;20267;-66
2021/04/23 01:18:59;;;;;;;0.73;0.70;;;2.80;99.90;;;3.18;100.00;-20768.59;5075900;28;20238;-66
2021/04/23 01:21:30;;;;;;;0.80;0.70;;;2.80;99.90;;;3.12;100.00;-20766.91;5055427;28;20204;-67
2021/04/23 01:24:00;;;;;;;0.80;0.70;;;2.80;99.90;;;3.05;100.00;-20765.09;5092533;28;20241;-67
2021/04/23 01:26:32;;;;;;;0.80;0.60;;;2.80;99.90;;;2.96;100.00;-20762.44;5092906;28;20652;-66
2021/04/23 01:29:00;;;;;;;0.70;0.50;;;2.70;99.90;;;2.84;100.00;-20759.38;5079097;28;20411;-66
2021/04/23 01:31:31;;;;;;;0.80;0.70;;;2.60;99.90;;;2.77;100.00;-20757.28;5073349;28;20660;-67
2021/04/23 01:34:04;;;;;;;0.80;0.70;;;2.40;99.90;;;2.70;100.00;-20755.31;5073228;28;20558;-67
2021/04/23 01:36:33;;;;;;;0.80;0.70;;;2.40;99.90;;;2.64;100.00;-20753.78;5072913;28;20180;-67
2021/04/23 01:39:03;;;;;;;1.02;0.93;;;2.30;99.90;;;2.65;100.00;-20754.22;5078123;28;20196;-67
2021/04/23 01:41:30;;;;;;;0.80;0.70;;;2.20;99.90;;;2.56;100.00;-20751.56;5090059;28;20237;-66
2021/04/23 01:43:57;;;;;;;0.70;0.60;;;2.20;99.90;;;2.49;100.00;-20749.75;5093169;28;20535;-67
2021/04/23 01:46:24;;;;;;;0.70;0.63;;;2.20;99.90;;;2.48;100.00;-20749.31;5090279;28;20256;-67
2021/04/23 01:48:51;;;;;;;0.80;0.70;;;2.10;99.90;;;2.44;100.00;-20748.22;5093094;28;20188;-66
2021/04/23 01:51:18;;;;;;;0.80;0.70;;;2.10;99.90;;;2.34;100.00;-20745.69;5092112;28;20184;-67
2021/04/23 01:53:46;;;;;;;0.80;0.70;;;2.00;99.90;;;2.38;100.00;-20746.66;5080985;28;20192;-67
2021/04/23 01:56:13;;;;;;;0.75;0.65;;;1.90;99.90;;;2.34;100.00;-20745.69;5091633;28;20191;-66
2021/04/23 01:58:41;;;;;;;0.70;0.60;;;1.90;99.90;;;2.31;100.00;-20744.84;5092926;28;20235;-67
2021/04/23 02:01:09;;;;;;;0.70;0.70;;;1.90;99.90;;;2.28;100.00;-20744.00;5077052;28;20227;-67
2021/04/23 02:03:38;;;;;;;0.80;0.73;;;1.90;99.90;;;2.26;100.00;-20743.31;5074598;28;20217;-67
2021/04/23 02:06:09;;;;;;;0.70;0.60;;;1.90;99.90;;;2.22;100.00;-20742.34;5092747;28;20271;-67
2021/04/23 02:08:37;;;;;;;0.80;0.80;;;1.80;99.90;;;2.15;100.00;-20740.38;5092901;28;20184;-67
2021/04/23 02:11:10;;;;;;;0.80;0.70;;;1.80;99.90;;;2.22;100.00;-20742.19;5077159;28;20224;-66
2021/04/23 02:13:39;;;;;;;0.80;0.80;;;1.80;99.90;;;2.14;100.00;-20740.25;5072946;28;20280;-67
2021/04/23 02:16:08;;;;;;;0.80;0.70;;;1.70;99.90;;;2.08;100.00;-20738.44;5086669;28;20196;-66
2021/04/23 02:18:36;;;;;;;0.77;0.70;;;1.60;99.90;;;2.01;100.00;-20736.63;5080794;28;20246;-66
2021/04/23 02:21:04;;;;;;;0.80;0.80;;;1.60;99.90;;;2.03;100.00;-20737.03;5076351;28;20220;-66
2021/04/23 02:23:32;;;;;;;0.75;0.70;;;1.60;99.90;;;2.02;100.00;-20736.75;5076185;28;20692;-66
2021/04/23 02:26:00;;;;;;;0.80;0.80;;;1.60;99.90;;;1.99;100.00;-20736.06;5075826;28;20571;-66
2021/04/23 02:28:28;;;;;;;0.80;0.70;;;1.60;99.90;;;1.99;100.00;-20735.91;5086451;28;20644;-66
2021/04/23 02:30:59;;;;;;;0.80;0.75;;;1.50;99.90;;;2.01;100.00;-20736.47;5086386;28;20275;-66
2021/04/23 02:33:27;;;;;;;0.70;0.60;;;1.60;99.90;;;1.98;100.00;-20735.78;5096511;28;20173;-67
2021/04/23 02:35:56;;;;;;;0.80;0.73;;;1.50;99.90;;;1.90;100.00;-20733.69;5096195;28;20260;-66
2021/04/23 02:38:24;;;;;;;0.70;0.60;;;1.50;99.90;;;1.87;100.00;-20732.84;5087515;28;20609;-68
2021/04/23 02:40:54;;;;;;;0.80;0.70;;;1.50;99.90;;;1.89;100.00;-20733.41;5075799;28;20603;-67
2021/04/23 02:43:27;;;;;;;0.70;0.70;;;1.50;99.90;;;1.83;100.00;-20731.72;5075765;28;20326;-67
2021/04/23 02:45:57;;;;;;;0.80;0.70;;;1.40;99.90;;;1.81;100.00;-20731.16;5088897;28;20365;-66
2021/04/23 02:48:27;;;;;;;0.80;0.80;;;1.40;99.90;;;1.75;100.00;-20729.50;5095935;28;20698;-67
2021/04/23 02:50:59;;;;;;;0.75;0.70;;;1.40;99.90;;;1.82;100.00;-20731.44;5075677;28;20181;-67
2021/04/23 02:53:26;;;;;;;0.80;0.80;;;1.30;99.90;;;1.83;100.00;-20731.59;5075747;28;20231;-67
2021/04/23 02:55:53;;;;;;;0.70;0.60;;;1.30;99.90;;;1.73;100.00;-20728.78;5075193;28;20221;-67
2021/04/23 02:58:22;;;;;;;0.80;0.80;;;1.30;99.90;;;1.79;100.00;-20730.47;5076541;28;20200;-67
2021/04/23 03:00:54;;;;;;;0.70;0.70;;;1.40;99.90;;;1.70;100.00;-20728.09;5089843;28;20188;-68
2021/04/23 03:03:22;;;;;;;0.70;0.70;;;1.30;99.90;;;1.63;100.00;-20726.13;5095440;28;20196;-69
2021/04/23 03:05:50;;;;;;;0.80;0.80;;;1.20;99.90;;;1.70;100.00;-20728.09;5093896;28;20195;-66
2021/04/23 03:08:19;;;;;;;0.70;0.60;;;1.20;99.90;;;1.58;100.00;-20724.88;5095597;28;20579;-66
2021/04/23 03:10:49;;;;;;;0.80;0.70;;;1.20;99.90;;;1.56;100.00;-20724.31;5095666;28;20188;-66
2021/04/23 03:13:19;;;;;;;0.80;0.70;;;1.20;99.90;;;1.48;100.00;-20721.94;5111291;28;20687;-67
2021/04/23 03:15:47;;;;;;;0.80;0.80;;;1.00;99.90;;;1.41;100.00;-20720.28;5085802;28;20195;-67
2021/04/23 03:18:17;;;;;;;0.80;0.70;;;1.00;99.90;;;1.36;100.00;-20718.88;5095579;28;20244;-67
2021/04/23 03:20:46;;;;;;;0.85;0.85;;;1.00;99.90;;;1.36;100.00;-20718.88;5095447;28;20632;-67
2021/04/23 03:23:13;;;;;;;0.80;0.73;;;1.00;99.90;;;1.37;100.00;-20719.16;5090073;28;20209;-68
2021/04/23 03:25:41;;;;;;;0.80;0.70;;;1.10;99.90;;;1.50;100.00;-20722.50;5083048;28;20200;-69
2021/04/23 03:28:08;;;;;;;0.70;0.70;;;1.00;99.90;;;1.44;100.00;-20721.09;5095210;28;20595;-66
2021/04/23 03:30:40;;;;;;;0.80;0.77;;;1.00;99.90;;;1.41;100.00;-20720.28;5082806;28;20193;-68
2021/04/23 03:33:10;;;;;;;0.70;0.70;;;0.90;99.90;;;1.37;100.00;-20719.16;5074886;28;20181;-66
2021/04/23 03:35:40;;;;;;;0.80;0.70;;;1.00;99.90;;;1.32;100.00;-20717.59;5074716;28;20197;-66
2021/04/23 03:38:09;;;;;;;0.80;0.70;;;0.90;99.90;;;1.31;100.00;-20717.47;5093391;28;20585;-68
2021/04/23 03:40:39;;;;;;;0.80;0.70;;;0.90;99.90;;;1.25;100.00;-20715.78;5073262;28;20216;-67
2021/04/23 03:43:07;;;;;;;0.80;0.73;;;0.80;99.90;;;1.21;100.00;-20714.69;5083213;28;20207;-67
2021/04/23 03:45:35;;;;;;;0.70;0.60;;;0.70;99.90;;;1.23;100.00;-20715.09;5090180;28;20196;-67
2021/04/23 03:48:05;;;;;;;0.73;0.70;;;0.70;99.90;;;1.09;100.00;-20711.47;5091321;28;20233;-67
2021/04/23 03:50:34;;;;;;;0.70;0.70;;;0.70;99.90;;;1.08;100.00;-20711.03;5085765;28;20241;-67
2021/04/23 03:53:06;;;;;;;0.80;0.70;;;0.70;99.90;;;0.98;100.00;-20708.25;5093537;28;20180;-67
2021/04/23 03:55:40;;;;;;;0.70;0.70;;;0.60;99.90;;;0.96;100.00;-20707.81;5093596;28;20193;-67
2021/04/23 03:58:07;;;;;;;0.80;0.70;;;0.60;99.90;;;0.87;100.00;-20705.44;5086112;28;20307;-67
2021/04/23 04:00:38;;;;;;;0.80;0.70;;;0.50;99.90;;;0.85;100.00;-20704.88;5084557;28;20633;-66
2021/04/23 04:03:06;;;;;;;0.80;0.70;;;0.40;99.90;;;0.85;100.00;-20704.88;5093294;28;20204;-66
2021/04/23 04:05:34;;;;;;;0.73;0.63;;;0.40;99.90;;;0.90;100.00;-20706.16;5073979;28;20249;-68
2021/04/23 04:08:03;;;;;;;0.70;0.60;;;0.50;99.90;;;0.93;100.00;-20707.13;5075354;28;20202;-68
2021/04/23 04:10:31;;;;;;;0.85;0.85;;;0.50;99.90;;;0.84;100.00;-20704.47;5083072;28;20611;-68
2021/04/23 04:12:58;;;;;;;0.77;0.70;;;0.50;99.90;;;0.73;100.00;-20701.66;5074190;28;20258;-68
2021/04/23 04:15:27;;;;;;;0.85;0.85;;;0.50;99.90;;;0.72;100.00;-20701.38;5074121;28;20173;-68
2021/04/23 04:17:54;;;;;;;0.80;0.70;;;0.40;99.90;;;0.66;100.00;-20699.56;5106854;28;20269;-68
2021/04/23 04:20:25;;;;;;;0.70;0.60;;;0.40;99.90;;;0.69;100.00;-20700.41;5094015;28;20184;-68
2021/04/23 04:22:53;;;;;;;0.77;0.75;;;0.40;99.90;;;0.65;100.00;-20699.28;5093812;28;20281;-69
2021/04/23 04:25:27;;;;;;;0.75;0.70;;;0.40;99.90;;;0.59;100.00;-20697.63;5093248;28;20200;-69
2021/04/23 04:27:55;;;;;;;0.80;0.70;;;0.40;99.90;;;0.66;100.00;-20699.72;5085812;28;20221;-69
2021/04/23 04:30:24;;;;;;;1.10;1.00;;;0.40;99.90;;;0.62;100.00;-20698.44;5080962;28;20212;-68
2021/04/23 04:32:52;;;;;;;0.70;0.70;;;0.40;99.90;;;0.58;100.00;-20697.47;5073480;28;20242;-68
2021/04/23 04:35:20;;;;;;;0.70;0.70;;;0.40;99.90;;;0.61;100.00;-20698.19;5094120;28;20200;-68
2021/04/23 04:37:47;;;;;;;0.80;0.70;;;0.40;99.90;;;0.66;100.00;-20699.56;5091365;28;20254;-68
2021/04/23 04:40:16;;;;;;;0.80;0.70;;;0.40;99.90;;;0.66;100.00;-20699.72;5087513;28;20189;-67
2021/04/23 04:42:43;;;;;;;0.80;0.73;;;0.40;99.90;;;0.63;100.00;-20698.88;5080170;28;20201;-67
2021/04/23 04:45:16;;;;;;;0.70;0.70;;;0.30;99.90;;;0.67;100.00;-20700.00;5079722;28;20211;-66
2021/04/23 04:47:44;;;;;;;0.80;0.70;;;0.40;99.90;;;0.70;100.00;-20700.69;5057185;28;20185;-67
2021/04/23 04:50:16;;;;;;;0.70;0.68;;;0.40;99.90;;;0.70;100.00;-20700.69;5082787;28;20216;-67
2021/04/23 04:52:43;;;;;;;0.80;0.80;;;0.30;99.90;;;0.76;100.00;-20702.38;5089075;28;20176;-67
2021/04/23 04:55:14;;;;;;;0.80;0.80;;;0.30;99.90;;;0.84;100.00;-20704.59;5083276;28;20184;-67
2021/04/23 04:57:41;;;;;;;0.70;0.70;;;0.40;99.90;;;0.93;100.00;-20707.13;5074459;28;20247;-68
2021/04/23 05:00:15;;;;;;;0.80;0.70;;;0.50;99.90;;;1.03;100.00;-20709.63;5072637;28;20196;-67
2021/04/23 05:02:42;;;;;;;0.70;0.60;;;0.70;99.90;;;1.16;100.00;-20713.41;5086850;28;20599;-66
2021/04/23 05:05:11;;;;;;;0.80;0.70;;;0.90;99.90;;;1.31;100.00;-20717.34;5093395;28;20165;-66
2021/04/23 05:07:38;;;;;;;0.80;0.70;;;1.00;99.90;;;1.38;100.00;-20719.44;5093971;28;20241;-69
2021/04/23 05:10:07;;;;;;;0.80;0.70;;;1.10;99.90;;;1.39;100.00;-20719.56;5096559;28;20195;-67
2021/04/23 05:12:35;;;;;;;0.70;0.63;;;1.20;99.90;;;1.48;100.00;-20721.94;5073752;28;20258;-67
2021/04/23 05:15:02;;;;;;;0.70;0.60;;;1.20;99.90;;;1.52;100.00;-20723.06;5072956;28;20698;-66
2021/04/23 05:17:30;;;;;;;0.70;0.60;;;1.20;99.90;;;1.65;100.00;-20726.69;5073221;28;20188;-67
2021/04/23 05:19:57;;;;;;;0.80;0.70;;;1.30;99.90;;;1.72;100.00;-20728.50;5077300;28;20188;-67
2021/04/23 05:22:24;;;;;;;0.70;0.60;;;1.30;99.90;;;1.80;100.00;-20730.88;5090875;28;20235;-68
2021/04/23 05:24:51;;;;;;;9.68;1.88;;;1.40;99.90;;;1.86;100.00;-20732.56;5093499;28;20316;-67
2021/04/23 05:27:18;;;;;;;0.70;0.60;;;1.40;99.90;;;1.97;100.00;-20735.34;5104782;28;20204;-67
2021/04/23 05:29:45;;;;;;;0.70;0.70;;;1.50;99.90;;;2.08;100.00;-20738.56;5077359;28;20272;-67
2021/04/23 05:32:12;;;;;;;0.80;0.70;;;1.60;99.90;;;2.19;100.00;-20741.50;5073102;28;20182;-67
2021/04/23 05:34:40;;;;;;;0.70;0.60;;;1.70;99.90;;;2.25;100.00;-20743.19;5071981;28;20197;-66
2021/04/23 05:37:09;;;;;;;0.80;0.70;;;1.80;99.90;;;2.40;100.00;-20747.38;5089431;28;20192;-66
2021/04/23 05:39:37;;;;;;;0.80;0.80;;;1.90;99.90;;;2.51;100.00;-20750.16;5090750;28;20957;-66
2021/04/23 05:42:05;;;;;;;0.70;0.60;;;2.00;99.90;;;2.66;100.00;-20754.34;5091344;28;20258;-67
2021/04/23 05:44:32;;;;;;;0.70;0.70;;;2.20;99.90;;;2.81;100.00;-20758.53;5090514;28;20188;-67
2021/04/23 05:46:59;;;;;;;0.70;0.60;;;2.40;99.90;;;2.97;100.00;-20762.72;5092010;28;20193;-67
2021/04/23 05:49:26;;;;;;;0.80;0.73;;;2.50;99.90;;;3.14;100.00;-20767.47;5085831;28;20202;-67
2021/04/23 05:51:54;;;;;;;0.80;0.80;;;2.70;99.90;;;3.25;100.00;-20770.53;5071746;28;20290;-69
2021/04/23 05:54:21;;;;;;;0.70;0.70;;;2.80;99.90;;;3.55;100.00;-20778.63;5074319;28;20189;-67
2021/04/23 05:56:48;;;;;;;0.70;0.60;;;3.00;99.90;;;3.71;100.00;-20783.09;5078946;28;20254;-67
2021/04/23 05:59:15;;;;;;;0.80;0.63;;;3.20;99.90;;;3.83;100.00;-20786.44;5078668;28;20200;-68
2021/04/23 06:01:42;;;;;;;0.80;0.70;;;3.40;99.90;;;4.00;100.00;-20790.88;5096801;28;20241;-68
2021/04/23 06:04:10;;;;;;;0.70;0.60;;;3.50;99.90;;;4.14;100.00;-20794.66;5096950;28;20282;-67
2021/04/23 06:06:37;;;;;;;0.70;0.60;;;3.70;99.90;;;4.31;100.00;-20799.53;5096084;28;20188;-67
2021/04/23 06:09:07;;;;;;;0.80;0.80;;;3.80;99.90;;;4.48;100.00;-20804.13;5085835;28;20201;-68
2021/04/23 06:11:36;;;;;;;0.75;0.65;;;3.90;99.90;;;4.67;100.00;-20809.28;5091956;28;20199;-66
2021/04/23 06:14:04;;;;;;;0.70;0.60;;;4.10;99.90;;;4.91;100.00;-20815.69;5096943;28;20214;-66
2021/04/23 06:16:31;;;;;;;0.70;0.60;;;4.40;99.90;;;5.17;100.00;-20822.94;5078467;28;20551;-67
2021/04/23 06:18:58;;;;;;;0.80;0.70;;;4.50;99.90;;;5.36;100.00;-20828.06;5076366;28;20181;-67
2021/04/23 06:21:25;;;;;;;0.80;0.70;;;4.80;99.90;;;5.59;100.00;-20834.34;5089005;28;20200;-66
2021/04/23 06:23:52;;;;;;;0.70;0.70;;;4.90;99.90;;;5.82;100.00;-20840.75;5096669;28;20279;-67
2021/04/23 06:26:20;;;;;;;0.70;0.60;;;5.30;99.90;;;6.05;100.00;-20846.88;5095013;28;20235;-67
2021/04/23 06:28:47;;;;;;;0.70;0.60;;;5.50;99.90;;;6.32;100.00;-20854.09;5095070;28;20183;-67
2021/04/23 06:31:16;;;;;;;0.80;0.70;;;5.70;99.90;;;6.62;100.00;-20862.28;5079368;28;20683;-67
2021/04/23 06:33:47;;;;;;;0.70;0.60;;;6.00;99.90;;;6.84;100.00;-20868.41;5076537;28;20511;-66
2021/04/23 06:36:14;;;;;;;0.70;0.60;;;6.10;99.90;;;7.07;100.00;-20874.66;5079287;28;20287;-67
2021/04/23 06:38:42;;;;;;;0.70;0.60;;;6.30;99.90;;;7.07;100.00;-20874.53;5089811;28;20261;-67
2021/04/23 06:41:11;;;;;;;0.70;0.60;;;6.50;99.90;;;7.34;100.00;-20881.88;5095036;28;20271;-67
2021/04/23 06:43:40;;;;;;;0.70;0.60;;;6.60;99.90;;;7.61;100.00;-20889.38;5080021;28;20204;-67
2021/04/23 06:46:07;;;;;;;0.75;0.60;;;6.60;99.90;;;7.65;100.00;-20890.50;5089652;28;20530;-66
2021/04/23 06:48:35;;;;;;;0.70;0.60;;;6.80;99.90;;;7.67;100.00;-20891.03;5096161;28;20216;-66
2021/04/23 06:51:04;;;;;;;0.70;0.60;;;7.10;99.90;;;7.65;100.00;-20890.34;5080799;28;20185;-67
2021/04/23 06:53:32;;;;;;;0.70;0.60;;;7.20;99.90;;;7.97;100.00;-20899.09;5088167;28;20430;-67
2021/04/23 06:56:02;;;;;;;0.70;0.60;;;7.30;99.90;;;8.41;100.00;-20911.03;5095961;28;20432;-67
2021/04/23 06:58:30;;;;;;;0.80;0.60;;;7.60;99.90;;;8.67;100.00;-20918.25;5088689;28;20467;-67
2021/04/23 07:00:58;;;;;;;0.70;0.60;;;7.90;99.90;;;9.13;100.00;-20930.72;5085526;28;20566;-68
2021/04/23 07:03:25;;;;;;;0.70;0.70;;;8.10;99.90;;;9.41;100.00;-20938.19;5095453;28;20454;-67
2021/04/23 07:05:54;;;;;;;0.70;0.50;;;8.30;99.90;;;9.86;100.00;-20950.38;5095393;28;20425;-66
2021/04/23 07:08:21;;;;;;;0.70;0.70;;;8.50;99.90;;;10.47;100.00;-20967.00;5094440;28;20442;-67
2021/04/23 07:10:48;;;;;;;0.70;0.60;;;8.90;99.90;;;11.06;100.00;-20983.03;5093827;28;20473;-66
2021/04/23 07:13:16;;;;;;;0.70;0.50;;;9.00;99.90;;;12.45;100.00;-21020.63;5095295;28;20448;-67
2021/04/23 07:15:43;;;;;;;0.70;0.53;;;9.10;99.90;;;12.06;100.00;-21009.97;5092691;28;20444;-66
2021/04/23 07:18:11;;;;;;;0.80;0.70;;;9.20;99.90;;;12.76;100.00;-21028.88;5095605;28;20436;-66
2021/04/23 07:20:41;;;;;;;0.70;0.60;;;9.30;99.90;;;12.63;100.00;-21025.31;5096807;28;20450;-68
2021/04/23 07:23:10;;;;;;;1.10;1.00;;;9.40;99.90;;;12.53;100.00;-21022.69;5086819;28;20522;-68
2021/04/23 07:25:37;;;;;;;0.80;0.80;;;9.80;99.90;;;13.23;100.00;-21041.72;5091055;28;20539;-67
2021/04/23 07:28:05;;;;;;;0.70;0.60;;;10.10;99.90;;;13.11;100.00;-21038.28;5092214;28;20478;-67
2021/04/23 07:30:36;;;;;;;0.70;0.60;;;10.10;99.90;;;14.00;100.00;-21062.53;5092748;28;20449;-66
2021/04/23 07:33:05;;;;;;;0.70;0.60;;;10.30;99.90;;;12.60;100.00;-21024.47;5095373;28;20423;-66
2021/04/23 07:35:34;;;;;;;0.70;0.60;;;10.80;99.90;;;13.02;100.00;-21036.06;5091533;28;20419;-66
2021/04/23 07:38:02;;;;;;;0.73;0.60;;;10.70;99.90;;;12.23;100.00;-21014.53;5073644;28;20541;-67
2021/04/23 07:40:31;;;;;;;0.77;0.70;;;10.60;99.90;;;12.50;100.00;-21022.00;5088929;28;20452;-68
2021/04/23 07:43:02;;;;;;;0.80;0.70;;;10.70;99.90;;;13.31;100.00;-21043.66;5094555;28;20561;-66
2021/04/23 07:45:49;;;;;;;0.80;0.60;;;10.40;99.90;;;13.03;100.00;-21036.19;5090817;28;20504;-67
2021/04/23 07:48:17;;;;;;;2.43;0.97;;;10.90;99.90;;;13.19;100.00;-21040.47;5075126;28;20430;-67
2021/04/23 07:50:46;;;;;;;0.77;0.60;;;11.00;99.90;;;13.09;100.00;-21037.72;5077406;28;20861;-67
2021/04/23 07:53:13;;;;;;;1.17;1.07;;;11.30;99.90;;;13.72;100.00;-21054.81;5087763;28;20434;-67
2021/04/23 07:55:40;;;;;;;0.77;0.70;;;11.50;99.90;;;15.86;100.00;-21112.47;5100634;28;20415;-67
2021/04/23 07:58:18;;;;;;;1.17;0.90;;;11.60;99.90;;;16.92;100.00;-21140.91;5096450;28;20545;-69
2021/04/23 08:00:46;;;;;;;0.80;0.70;;;10.90;99.90;;;16.58;100.00;-21131.97;5082555;28;20600;-66
2021/04/23 08:03:13;;;;;;;0.90;0.70;;;10.70;99.90;;;16.39;100.00;-21126.75;5074586;28;20849;-67
2021/04/23 08:05:41;;;;;;;0.70;0.60;;;10.90;99.90;;;15.92;100.00;-21114.25;5074744;28;20450;-68
2021/04/23 08:08:16;;;;;;;0.70;0.60;;;11.00;99.90;;;16.02;100.00;-21116.75;5075657;28;20476;-67
2021/04/23 08:10:45;;;;;;;0.70;0.60;;;11.20;97.40;;;16.18;100.00;-21121.13;5081414;28;20426;-68
2021/04/23 08:13:12;;;;;;;0.80;0.63;;;10.00;91.00;;;15.06;100.00;-21090.88;5084299;28;20451;-68
2021/04/23 08:15:39;;;;;;;0.70;0.60;;;10.20;90.40;;;14.78;100.00;-21083.47;5082394;28;20443;-66
2021/04/23 08:18:06;;;;;;;0.80;0.60;;;10.40;90.40;;;14.61;100.00;-21078.91;5082906;28;20761;-66
2021/04/23 08:20:34;;;;;;;0.70;0.60;;;11.20;90.20;;;15.26;100.00;-21096.38;5083756;28;20450;-68
2021/04/23 08:23:03;;;;;;;0.80;0.70;;;11.90;82.70;;;15.94;100.00;-21114.66;5084609;28;20457;-67
2021/04/23 08:25:31;;;;;;;0.70;0.60;;;12.40;80.80;;;17.64;100.00;-21160.38;5083405;28;20481;-67
2021/04/23 08:27:58;;;;;;;0.80;0.60;;;12.20;72.70;;;18.35;94.06;-21179.56;5080347;28;20459;-67
2021/04/23 08:30:27;;;;;;;0.80;0.67;;;11.90;67.70;;;18.69;92.67;-21188.59;5078115;28;20447;-69
2021/04/23 08:32:57;;;;;;;0.70;0.60;;;11.50;67.50;;;18.01;92.76;-21170.38;5083149;28;20442;-68
2021/04/23 08:35:25;;;;;;;0.70;0.60;;;11.80;64.80;;;17.86;91.96;-21166.41;5079310;28;20538;-67
2021/04/23 08:37:52;;;;;;;0.80;0.70;;;11.80;60.10;;;16.23;98.89;-21122.38;5078996;28;21449;-67
2021/04/23 08:40:21;;;;;;;0.90;0.80;;;11.80;59.90;;;16.97;100.00;-21142.28;5084440;28;20460;-66
2021/04/23 08:42:51;;;;;;;1.27;1.10;;;12.50;59.40;;;18.14;98.25;-21173.66;5080205;28;20470;-67
2021/04/23 08:45:21;;;;;;;0.70;0.60;;;12.60;57.50;;;16.95;98.41;-21141.72;5081169;28;20462;-66
2021/04/23 08:47:49;;;;;;;0.90;0.90;;;13.10;58.00;;;16.50;99.29;-21129.66;5079283;28;20841;-67
2021/04/23 08:50:20;;;;;;;0.70;0.60;;;13.50;52.40;;;17.37;100.00;-21153.25;5079407;28;20404;-66
2021/04/23 08:52:49;;;;;;;0.70;0.60;;;13.60;50.50;;;18.87;91.21;-21193.25;5070634;28;20478;-67
2021/04/23 08:55:20;;;;;;;0.80;0.70;;;13.10;46.50;;;19.81;86.31;-21218.41;5079107;28;20432;-66
2021/04/23 08:58:08;;;;;;;0.70;0.60;;;13.20;46.10;;;19.98;83.17;-21223.19;5083342;28;20848;-67
2021/04/23 09:00:36;;;;;;;1.27;0.97;;;13.30;46.00;;;18.77;88.88;-21190.66;5076780;28;20414;-66
2021/04/23 09:03:03;;;;;;;0.80;0.60;;;13.50;46.70;;;20.29;82.00;-21231.41;5086082;28;20536;-67
2021/04/23 09:05:31;;;;;;;0.70;0.60;;;13.30;43.10;;;20.34;81.18;-21232.75;5071903;28;20431;-67
2021/04/23 09:08:01;;;;;;;0.70;0.50;;;13.20;45.10;;;20.64;81.54;-21240.81;5080912;28;20500;-66
2021/04/23 09:10:30;;;;;;;0.70;0.60;;;12.90;44.80;;;20.30;82.48;-21231.53;5081231;28;20435;-66
2021/04/23 09:13:09;;;;;;;0.80;0.67;;;13.50;46.30;;;17.41;83.48;-21154.06;5079365;28;20498;-66
2021/04/23 09:15:38;;;;;;;1.20;1.10;;;14.10;40.60;;;18.50;86.90;-21183.41;5081378;28;20456;-66
2021/04/23 09:18:09;;;;;;;0.70;0.60;;;13.90;36.60;;;19.02;87.96;-21197.50;5071880;28;20427;-67
2021/04/23 09:20:39;;;;;;;0.70;0.60;;;13.30;41.00;;;19.35;84.11;-21206.25;5071920;28;20973;-67
2021/04/23 09:23:14;;;;;;;0.70;0.60;;;13.30;42.10;;;19.00;89.48;-21196.81;5079999;28;20461;-67
2021/04/23 09:25:46;;;;;;;0.70;0.60;;;14.10;40.80;;;17.58;86.40;-21158.88;5088656;28;20438;-69
2021/04/23 09:28:15;;;;;;;0.70;0.60;;;14.60;36.90;;;19.83;84.09;-21218.97;5095636;28;20833;-67
2021/04/23 09:30:43;;;;;;;1.37;0.70;;;13.90;32.20;;;18.22;83.69;-21176.00;5094399;28;20540;-67
2021/04/23 09:33:25;;;;;;;0.80;0.60;;;14.10;36.80;;;18.32;89.31;-21178.75;5098890;28;20882;-67
2021/04/23 09:35:53;;;;;;;0.77;0.63;;;14.60;36.20;;;19.51;86.86;-21210.50;5098560;28;20426;-66
2021/04/23 09:38:21;;;;;;;0.70;0.60;;;14.50;36.10;;;18.41;85.24;-21180.94;5081886;28;20435;-66
2021/04/23 09:40:48;;;;;;;0.97;0.60;;;14.60;36.50;;;17.72;86.36;-21162.56;5090453;28;20430;-67
2021/04/23 09:43:36;;;;;;;1.00;0.80;;;14.90;31.70;;;17.72;87.13;-21162.56;5097241;28;20469;-68
2021/04/23 09:46:03;;;;;;;0.77;0.60;;;15.20;30.80;;;17.66;89.82;-21160.94;5089178;28;20436;-67
2021/04/23 09:48:31;;;;;;;0.70;0.60;;;14.90;29.40;;;17.36;95.20;-21152.97;5083791;28;20473;-67
2021/04/23 09:51:18;;;;;;;0.70;0.63;;;15.10;33.40;;;18.95;91.67;-21195.59;5096417;28;20421;-67
2021/04/23 09:53:45;;;;;;;1.00;0.63;;;14.90;34.30;;;20.14;84.83;-21227.44;5096089;28;20488;-68
2021/04/23 09:56:12;;;;;;;0.70;0.50;;;14.70;29.60;;;20.47;82.20;-21236.19;5084608;28;20481;-66
2021/04/23 09:58:42;;;;;;;0.70;0.60;;;14.40;34.70;;;18.40;85.04;-21180.66;5077756;28;20454;-68
2021/04/23 10:01:10;;;;;;;0.90;0.70;;;15.20;31.80;;;19.99;83.57;-21223.34;5093984;28;20448;-67
2021/04/23 10:03:37;;;;;;;0.80;0.60;;;14.50;28.60;;;19.38;81.69;-21207.06;5097541;28;20460;-67
2021/04/23 10:06:21;;;;;;;0.80;0.67;;;14.90;30.00;;;20.70;80.64;-21242.47;5098475;28;20457;-67
2021/04/23 10:08:48;;;;;;;0.70;0.50;;;14.90;28.40;;;18.37;81.35;-21179.84;5113895;28;20781;-67
2021/04/23 10:11:15;;;;;;;1.20;1.13;;;15.20;27.80;;;20.84;79.07;-21246.00;5083309;28;20442;-66
2021/04/23 10:13:44;;;;;;;0.70;0.60;;;14.60;26.90;;;20.14;79.40;-21227.44;5085011;28;20538;-67
2021/04/23 10:16:15;;;;;;;0.70;0.60;;;14.90;28.80;;;21.38;75.38;-21260.47;5084988;28;20914;-67
2021/04/23 10:18:42;;;;;;;0.70;0.50;;;14.40;26.80;;;19.77;75.69;-21217.59;5112973;28;20433;-66
2021/04/23 10:21:09;;;;;;;0.70;0.60;;;14.30;28.10;;;20.81;74.47;-21245.19;5096400;28;20808;-66
2021/04/23 10:23:36;;;;;;;0.70;0.60;;;13.70;26.70;;;18.06;79.75;-21171.75;5097440;28;20461;-67